sensor_id;sensor_type;location;lat;lon;timestamp;pressure;altitude;pressure_sealevel;temperature;humidity
79242;BME280;68670;48.720;9.118;2023-11-21T00:01:06;96315.78;;;6.39;100.00
79242;BME280;68670;48.720;9.118;2023-11-21T00:03:34;96309.06;;;6.42;100.00
79242;BME280;68670;48.720;9.118;2023-11-21T00:05:59;96307.78;;;6.45;100.00
79242;BME280;68670;48.720;9.118;2023-11-21T00:08:25;96305.44;;;6.48;100.00
79242;BME280;68670;48.720;9.118;2023-11-21T00:10:53;96311.94;;;6.47;100.00
79242;BME280;68670;48.720;9.118;2023-11-21T00:13:18;96303.63;;;6.42;100.00
79242;BME280;68670;48.720;9.118;2023-11-21T00:15:43;96302.78;;;6.42;100.00
79242;BME280;68670;48.720;9.118;2023-11-21T00:18:11;96298.50;;;6.34;100.00
79242;BME280;68670;48.720;9.118;2023-11-21T00:20:36;96300.31;;;6.40;100.00
79242;BME280;68670;48.720;9.118;2023-11-21T00:23:04;96295.31;;;6.37;100.00
79242;BME280;68670;48.720;9.118;2023-11-21T00:25:29;96299.84;;;6.43;100.00
79242;BME280;68670;48.720;9.118;2023-11-21T00:27:56;96291.09;;;6.41;100.00
79242;BME280;68670;48.720;9.118;2023-11-21T00:30:23;96295.47;;;6.42;100.00
79242;BME280;68670;48.720;9.118;2023-11-21T00:32:49;96295.47;;;6.42;100.00
79242;BME280;68670;48.720;9.118;2023-11-21T00:35:19;96291.81;;;6.48;100.00
79242;BME280;68670;48.720;9.118;2023-11-21T00:37:44;96291.09;;;6.41;100.00
79242;BME280;68670;48.720;9.118;2023-11-21T00:40:10;96298.66;;;6.39;100.00
79242;BME280;68670;48.720;9.118;2023-11-21T00:42:40;96290.72;;;6.37;100.00
79242;BME280;68670;48.720;9.118;2023-11-21T00:45:06;96281.59;;;6.32;100.00
79242;BME280;68670;48.720;9.118;2023-11-21T00:47:32;96278.41;;;6.35;100.00
79242;BME280;68670;48.720;9.118;2023-11-21T00:49:57;96289.44;;;6.40;100.00
79242;BME280;68670;48.720;9.118;2023-11-21T00:52:22;96284.00;;;6.40;100.00
79242;BME280;68670;48.720;9.118;2023-11-21T00:54:50;96284.53;;;6.30;100.00
79242;BME280;68670;48.720;9.118;2023-11-21T00:57:15;96285.38;;;6.31;100.00
79242;BME280;68670;48.720;9.118;2023-11-21T00:59:43;96296.25;;;6.31;100.00
79242;BME280;68670;48.720;9.118;2023-11-21T01:02:10;96298.81;;;6.26;100.00
79242;BME280;68670;48.720;9.118;2023-11-21T01:04:38;96296.72;;;6.28;100.00
79242;BME280;68670;48.720;9.118;2023-11-21T01:07:06;96293.53;;;6.31;100.00
79242;BME280;68670;48.720;9.118;2023-11-21T01:09:31;96292.09;;;6.28;100.00
79242;BME280;68670;48.720;9.118;2023-11-21T01:11:59;96282.88;;;6.29;100.00
79242;BME280;68670;48.720;9.118;2023-11-21T01:14:29;96289.06;;;6.36;100.00
79242;BME280;68670;48.720;9.118;2023-11-21T01:16:57;96297.91;;;6.32;100.00
79242;BME280;68670;48.720;9.118;2023-11-21T01:19:25;96290.34;;;6.34;100.00
79242;BME280;68670;48.720;9.118;2023-11-21T01:21:50;96284.91;;;6.34;100.00
79242;BME280;68670;48.720;9.118;2023-11-21T01:24:18;96294.13;;;6.33;100.00
79242;BME280;68670;48.720;9.118;2023-11-21T01:26:45;96287.03;;;6.32;100.00
79242;BME280;68670;48.720;9.118;2023-11-21T01:29:11;96287.50;;;6.29;100.00
79242;BME280;68670;48.720;9.118;2023-11-21T01:31:37;96289.59;;;6.27;100.00
79242;BME280;68670;48.720;9.118;2023-11-21T01:34:04;96289.97;;;6.30;100.00
79242;BME280;68670;48.720;9.118;2023-11-21T01:36:33;96287.03;;;6.32;100.00
79242;BME280;68670;48.720;9.118;2023-11-21T01:38:59;96284.91;;;6.34;100.00
79242;BME280;68670;48.720;9.118;2023-11-21T01:41:26;96280.75;;;6.31;100.00
79242;BME280;68670;48.720;9.118;2023-11-21T01:43:52;96281.59;;;6.32;100.00
79242;BME280;68670;48.720;9.118;2023-11-21T01:46:23;96274.03;;;6.34;100.00
79242;BME280;68670;48.720;9.118;2023-11-21T01:48:49;96278.88;;;6.32;100.00
79242;BME280;68670;48.720;9.118;2023-11-21T01:51:15;96283.72;;;6.30;100.00
79242;BME280;68670;48.720;9.118;2023-11-21T01:53:40;96278.03;;;6.31;100.00
79242;BME280;68670;48.720;9.118;2023-11-21T01:56:10;96277.81;;;6.33;100.00
79242;BME280;68670;48.720;9.118;2023-11-21T01:58:36;96281.88;;;6.42;100.00
79242;BME280;68670;48.720;9.118;2023-11-21T02:01:01;96284.22;;;6.38;100.00
79242;BME280;68670;48.720;9.118;2023-11-21T02:03:26;96280.66;;;6.38;100.00
79242;BME280;68670;48.720;9.118;2023-11-21T02:05:53;96287.31;;;6.42;100.00
79242;BME280;68670;48.720;9.118;2023-11-21T02:08:21;96278.53;;;6.40;100.00
79242;BME280;68670;48.720;9.118;2023-11-21T02:10:46;96288.59;;;6.39;100.00
79242;BME280;68670;48.720;9.118;2023-11-21T02:13:13;96284.44;;;6.37;100.00
79242;BME280;68670;48.720;9.118;2023-11-21T02:15:39;96278.28;;;6.30;100.00
79242;BME280;68670;48.720;9.118;2023-11-21T02:18:05;96284.53;;;6.30;100.00
79242;BME280;68670;48.720;9.118;2023-11-21T02:20:31;96284.03;;;6.22;100.00
79242;BME280;68670;48.720;9.118;2023-11-21T02:23:00;96277.53;;;6.23;100.00
79242;BME280;68670;48.720;9.118;2023-11-21T02:25:32;96270.34;;;6.28;100.00
79242;BME280;68670;48.720;9.118;2023-11-21T02:27:59;96272.91;;;6.23;100.00
79242;BME280;68670;48.720;9.118;2023-11-21T02:30:26;96272.09;;;6.23;100.00
79242;BME280;68670;48.720;9.118;2023-11-21T02:32:55;96266.66;;;6.23;100.00
79242;BME280;68670;48.720;9.118;2023-11-21T02:35:23;96263.34;;;6.21;100.00
79242;BME280;68670;48.720;9.118;2023-11-21T02:37:49;96270.88;;;6.19;100.00
79242;BME280;68670;48.720;9.118;2023-11-21T02:40:15;96266.16;;;6.14;100.00
79242;BME280;68670;48.720;9.118;2023-11-21T02:42:44;96264.28;;;6.15;100.00
79242;BME280;68670;48.720;9.118;2023-11-21T02:45:09;96257.19;;;6.14;100.00
79242;BME280;68670;48.720;9.118;2023-11-21T02:47:38;96260.97;;;6.13;100.00
79242;BME280;68670;48.720;9.118;2023-11-21T02:50:06;96256.59;;;6.12;100.00
79242;BME280;68670;48.720;9.118;2023-11-21T02:52:34;96255.97;;;6.10;100.00
79242;BME280;68670;48.720;9.118;2023-11-21T02:55:01;96260.59;;;6.09;100.00
79242;BME280;68670;48.720;9.118;2023-11-21T02:57:26;96254.31;;;6.09;100.00
79242;BME280;68670;48.720;9.118;2023-11-21T02:59:54;96255.16;;;6.09;100.00
79242;BME280;68670;48.720;9.118;2023-11-21T03:02:19;96254.31;;;6.09;100.00
79242;BME280;68670;48.720;9.118;2023-11-21T03:04:45;96255.75;;;6.11;100.00
79242;BME280;68670;48.720;9.118;2023-11-21T03:07:10;96265.19;;;6.09;100.00
79242;BME280;68670;48.720;9.118;2023-11-21T03:09:37;96260.22;;;6.05;100.00
79242;BME280;68670;48.720;9.118;2023-11-21T03:12:03;96252.53;;;6.02;100.00
79242;BME280;68670;48.720;9.118;2023-11-21T03:14:28;96266.13;;;6.02;100.00
79242;BME280;68670;48.720;9.118;2023-11-21T03:16:56;96265.97;;;5.97;100.00
79242;BME280;68670;48.720;9.118;2023-11-21T03:19:25;96262.03;;;5.93;100.00
79242;BME280;68670;48.720;9.118;2023-11-21T03:21:50;96265.38;;;5.95;100.00
79242;BME280;68670;48.720;9.118;2023-11-21T03:24:18;96266.28;;;5.89;100.00
79242;BME280;68670;48.720;9.118;2023-11-21T03:26:45;96272.91;;;5.93;100.00
79242;BME280;68670;48.720;9.118;2023-11-21T03:29:11;96275.19;;;5.96;100.00
79242;BME280;68670;48.720;9.118;2023-11-21T03:31:37;96263.25;;;5.97;100.00
79242;BME280;68670;48.720;9.118;2023-11-21T03:34:09;96264.44;;;6.01;100.00
79242;BME280;68670;48.720;9.118;2023-11-21T03:36:37;96271.53;;;6.02;100.00
79242;BME280;68670;48.720;9.118;2023-11-21T03:39:04;96266.94;;;6.03;100.00
79242;BME280;68670;48.720;9.118;2023-11-21T03:41:30;96267.16;;;6.01;100.00
79242;BME280;68670;48.720;9.118;2023-11-21T03:43:58;96271.69;;;6.07;100.00
79242;BME280;68670;48.720;9.118;2023-11-21T03:46:23;96277.72;;;6.10;100.00
79242;BME280;68670;48.720;9.118;2023-11-21T03:48:51;96280.59;;;6.15;100.00
79242;BME280;68670;48.720;9.118;2023-11-21T03:51:16;96287.91;;;6.14;100.00
79242;BME280;68670;48.720;9.118;2023-11-21T03:53:41;96286.03;;;6.15;100.00
79242;BME280;68670;48.720;9.118;2023-11-21T03:56:07;96287.09;;;6.14;100.00
79242;BME280;68670;48.720;9.118;2023-11-21T03:58:34;96291.59;;;6.20;100.00
79242;BME280;68670;48.720;9.118;2023-11-21T04:01:00;96287.31;;;6.12;100.00
79242;BME280;68670;48.720;9.118;2023-11-21T04:03:27;96282.78;;;6.06;100.00
79242;BME280;68670;48.720;9.118;2023-11-21T04:05:53;96281.13;;;6.05;100.00
79242;BME280;68670;48.720;9.118;2023-11-21T04:08:20;96277.34;;;6.06;100.00
79242;BME280;68670;48.720;9.118;2023-11-21T04:10:45;96277.34;;;6.06;100.00
79242;BME280;68670;48.720;9.118;2023-11-21T04:13:13;96274.88;;;6.04;100.00
79242;BME280;68670;48.720;9.118;2023-11-21T04:15:38;96282.88;;;5.99;100.00
79242;BME280;68670;48.720;9.118;2023-11-21T04:18:04;96277.00;;;6.02;100.00
79242;BME280;68670;48.720;9.118;2023-11-21T04:20:29;96280.75;;;6.01;100.00
79242;BME280;68670;48.720;9.118;2023-11-21T04:22:54;96274.28;;;6.02;100.00
79242;BME280;68670;48.720;9.118;2023-11-21T04:25:20;96288.31;;;5.99;100.00
79242;BME280;68670;48.720;9.118;2023-11-21T04:27:45;96281.81;;;6.00;100.00
79242;BME280;68670;48.720;9.118;2023-11-21T04:30:12;96278.50;;;5.98;100.00
79242;BME280;68670;48.720;9.118;2023-11-21T04:32:40;96285.00;;;5.97;100.00
79242;BME280;68670;48.720;9.118;2023-11-21T04:35:07;96283.72;;;6.00;100.00
79242;BME280;68670;48.720;9.118;2023-11-21T04:37:33;96288.00;;;6.07;100.00
79242;BME280;68670;48.720;9.118;2023-11-21T04:40:02;96288.00;;;6.07;100.00
79242;BME280;68670;48.720;9.118;2023-11-21T04:42:31;96296.38;;;6.06;100.00
79242;BME280;68670;48.720;9.118;2023-11-21T04:44:58;96292.84;;;6.05;100.00
79242;BME280;68670;48.720;9.118;2023-11-21T04:47:24;96286.81;;;6.03;100.00
79242;BME280;68670;48.720;9.118;2023-11-21T04:49:49;96303.94;;;6.04;100.00
79242;BME280;68670;48.720;9.118;2023-11-21T04:52:14;96301.13;;;6.11;100.00
79242;BME280;68670;48.720;9.118;2023-11-21T04:54:42;96295.25;;;6.14;100.00
79242;BME280;68670;48.720;9.118;2023-11-21T04:57:08;96284.69;;;6.05;100.00
79242;BME280;68670;48.720;9.118;2023-11-21T04:59:36;96299.94;;;6.06;100.00
79242;BME280;68670;48.720;9.118;2023-11-21T05:02:03;96296.00;;;6.02;100.00
79242;BME280;68670;48.720;9.118;2023-11-21T05:04:30;96289.53;;;6.03;100.00
79242;BME280;68670;48.720;9.118;2023-11-21T05:06:55;96299.63;;;5.96;100.00
79242;BME280;68670;48.720;9.118;2023-11-21T05:09:23;96301.75;;;5.94;100.00
79242;BME280;68670;48.720;9.118;2023-11-21T05:11:48;96311.41;;;5.90;100.00
79242;BME280;68670;48.720;9.118;2023-11-21T05:14:16;96312.91;;;5.86;100.00
79242;BME280;68670;48.720;9.118;2023-11-21T05:16:43;96311.84;;;5.87;100.00
79242;BME280;68670;48.720;9.118;2023-11-21T05:19:11;96316.22;;;5.88;100.00
79242;BME280;68670;48.720;9.118;2023-11-21T05:21:38;96313.38;;;5.83;100.00
79242;BME280;68670;48.720;9.118;2023-11-21T05:24:03;96320.69;;;5.83;100.00
79242;BME280;68670;48.720;9.118;2023-11-21T05:26:31;96322.59;;;5.82;100.00
79242;BME280;68670;48.720;9.118;2023-11-21T05:29:01;96321.31;;;5.85;100.00
79242;BME280;68670;48.720;9.118;2023-11-21T05:31:26;96326.50;;;5.86;100.00
79242;BME280;68670;48.720;9.118;2023-11-21T05:33:54;96331.66;;;5.76;100.00
79242;BME280;68670;48.720;9.118;2023-11-21T05:36:20;96328.31;;;5.74;100.00
79242;BME280;68670;48.720;9.118;2023-11-21T05:38:48;96328.31;;;5.74;100.00
79242;BME280;68670;48.720;9.118;2023-11-21T05:41:16;96333.75;;;5.74;100.00
79242;BME280;68670;48.720;9.118;2023-11-21T05:43:42;96334.97;;;5.78;100.00
79242;BME280;68670;48.720;9.118;2023-11-21T05:46:07;96336.63;;;5.79;100.00
79242;BME280;68670;48.720;9.118;2023-11-21T05:48:33;96339.34;;;5.79;100.00
79242;BME280;68670;48.720;9.118;2023-11-21T05:51:00;96337.47;;;5.80;100.00
79242;BME280;68670;48.720;9.118;2023-11-21T05:53:28;96337.06;;;5.76;100.00
79242;BME280;68670;48.720;9.118;2023-11-21T05:55:56;96337.06;;;5.76;100.00
79242;BME280;68670;48.720;9.118;2023-11-21T05:58:23;96337.53;;;5.73;100.00
79242;BME280;68670;48.720;9.118;2023-11-21T06:00:49;96334.13;;;5.78;100.00
79242;BME280;68670;48.720;9.118;2023-11-21T06:03:14;96331.66;;;5.76;100.00
79242;BME280;68670;48.720;9.118;2023-11-21T06:05:39;96326.22;;;5.76;100.00
79242;BME280;68670;48.720;9.118;2023-11-21T06:08:07;96328.69;;;5.78;100.00
79242;BME280;68670;48.720;9.118;2023-11-21T06:10:35;96332.94;;;5.73;100.00
79242;BME280;68670;48.720;9.118;2023-11-21T06:13:04;96339.78;;;5.76;100.00
79242;BME280;68670;48.720;9.118;2023-11-21T06:15:30;96340.84;;;5.75;100.00
79242;BME280;68670;48.720;9.118;2023-11-21T06:17:57;96353.38;;;5.76;100.00
79242;BME280;68670;48.720;9.118;2023-11-21T06:20:23;96354.44;;;5.75;100.00
79242;BME280;68670;48.720;9.118;2023-11-21T06:22:49;96350.06;;;5.74;100.00
79242;BME280;68670;48.720;9.118;2023-11-21T06:25:19;96353.84;;;5.73;100.00
79242;BME280;68670;48.720;9.118;2023-11-21T06:27:48;96365.59;;;5.67;100.00
79242;BME280;68670;48.720;9.118;2023-11-21T06:30:16;96368.91;;;5.69;100.00
79242;BME280;68670;48.720;9.118;2023-11-21T06:32:47;96371.63;;;5.69;100.00
79242;BME280;68670;48.720;9.118;2023-11-21T06:35:16;96374.81;;;5.66;100.00
79242;BME280;68670;48.720;9.118;2023-11-21T06:37:44;96380.69;;;5.63;100.00
79242;BME280;68670;48.720;9.118;2023-11-21T06:40:17;96379.63;;;5.64;100.00
79242;BME280;68670;48.720;9.118;2023-11-21T06:42:43;96386.13;;;5.63;100.00
79242;BME280;68670;48.720;9.118;2023-11-21T06:45:15;96384.00;;;5.65;100.00
79242;BME280;68670;48.720;9.118;2023-11-21T06:47:40;96393.97;;;5.71;100.00
79242;BME280;68670;48.720;9.118;2023-11-21T06:50:08;96390.66;;;5.69;100.00
79242;BME280;68670;48.720;9.118;2023-11-21T06:52:36;96396.09;;;5.69;100.00
79242;BME280;68670;48.720;9.118;2023-11-21T06:55:02;96394.59;;;5.73;100.00
79242;BME280;68670;48.720;9.118;2023-11-21T06:57:33;96401.84;;;5.79;100.00
79242;BME280;68670;48.720;9.118;2023-11-21T06:59:58;96401.41;;;5.82;100.00
79242;BME280;68670;48.720;9.118;2023-11-21T07:02:24;96413.31;;;5.81;100.00
79242;BME280;68670;48.720;9.118;2023-11-21T07:04:49;96408.00;;;5.86;100.00
79242;BME280;68670;48.720;9.118;2023-11-21T07:07:15;96404.25;;;5.87;100.00
79242;BME280;68670;48.720;9.118;2023-11-21T07:09:40;96409.25;;;5.90;100.00
79242;BME280;68670;48.720;9.118;2023-11-21T07:12:06;96413.78;;;5.96;100.00
79242;BME280;68670;48.720;9.118;2023-11-21T07:14:35;96418.78;;;5.99;100.00
79242;BME280;68670;48.720;9.118;2023-11-21T07:17:00;96411.69;;;5.98;100.00
79242;BME280;68670;48.720;9.118;2023-11-21T07:19:25;96416.69;;;6.01;100.00
79242;BME280;68670;48.720;9.118;2023-11-21T07:21:51;96415.63;;;6.02;100.00
79242;BME280;68670;48.720;9.118;2023-11-21T07:24:16;96420.00;;;6.03;100.00
79242;BME280;68670;48.720;9.118;2023-11-21T07:26:42;96427.31;;;6.03;100.00
79242;BME280;68670;48.720;9.118;2023-11-21T07:29:09;96429.81;;;6.04;100.00
79242;BME280;68670;48.720;9.118;2023-11-21T07:31:37;96429.59;;;6.06;100.00
79242;BME280;68670;48.720;9.118;2023-11-21T07:34:03;96435.88;;;6.06;100.00
79242;BME280;68670;48.720;9.118;2023-11-21T07:36:30;96431.63;;;6.11;100.00
79242;BME280;68670;48.720;9.118;2023-11-21T07:38:56;96437.69;;;6.13;100.00
79242;BME280;68670;48.720;9.118;2023-11-21T07:41:24;96436.03;;;6.12;100.00
79242;BME280;68670;48.720;9.118;2023-11-21T07:43:49;96439.94;;;6.16;100.00
79242;BME280;68670;48.720;9.118;2023-11-21T07:46:14;96442.66;;;6.16;100.00
79242;BME280;68670;48.720;9.118;2023-11-21T07:48:42;96446.44;;;6.15;100.00
79242;BME280;68670;48.720;9.118;2023-11-21T07:51:08;96447.88;;;6.17;100.00
79242;BME280;68670;48.720;9.118;2023-11-21T07:53:35;96443.84;;;6.20;100.00
79242;BME280;68670;48.720;9.118;2023-11-21T07:56:05;96455.78;;;6.19;100.00
79242;BME280;68670;48.720;9.118;2023-11-21T07:58:33;96450.81;;;6.16;100.00
79242;BME280;68670;48.720;9.118;2023-11-21T08:00:59;96457.44;;;6.20;100.00
79242;BME280;68670;48.720;9.118;2023-11-21T08:03:27;96457.00;;;6.23;100.00
79242;BME280;68670;48.720;9.118;2023-11-21T08:05:57;96455.78;;;6.19;100.00
79242;BME280;68670;48.720;9.118;2023-11-21T08:08:25;96458.66;;;6.24;100.00
79242;BME280;68670;48.720;9.118;2023-11-21T08:10:51;96455.25;;;6.28;100.00
79242;BME280;68670;48.720;9.118;2023-11-21T08:13:26;96461.47;;;6.35;100.00
79242;BME280;68670;48.720;9.118;2023-11-21T08:15:57;96467.72;;;6.36;100.00
79242;BME280;68670;48.720;9.118;2023-11-21T08:18:27;96460.56;;;6.42;100.00
79242;BME280;68670;48.720;9.118;2023-11-21T08:20:52;96460.56;;;6.42;100.00
79242;BME280;68670;48.720;9.118;2023-11-21T08:23:22;96467.59;;;6.49;100.00
79242;BME280;68670;48.720;9.118;2023-11-21T08:25:52;96459.88;;;6.46;100.00
79242;BME280;68670;48.720;9.118;2023-11-21T08:28:20;96469.59;;;6.54;100.00
79242;BME280;68670;48.720;9.118;2023-11-21T08:30:53;96462.97;;;6.50;100.00
79242;BME280;68670;48.720;9.118;2023-11-21T08:33:22;96465.75;;;6.61;100.00
79242;BME280;68670;48.720;9.118;2023-11-21T08:35:48;96459.25;;;6.62;100.00
79242;BME280;68670;48.720;9.118;2023-11-21T08:38:13;96471.25;;;6.73;100.00
79242;BME280;68670;48.720;9.118;2023-11-21T08:40:38;96475.50;;;6.69;100.00
79242;BME280;68670;48.720;9.118;2023-11-21T08:43:04;96474.72;;;6.80;100.00
79242;BME280;68670;48.720;9.118;2023-11-21T08:45:34;96481.50;;;6.89;100.00
79242;BME280;68670;48.720;9.118;2023-11-21T08:48:02;96484.13;;;6.96;100.00
79242;BME280;68670;48.720;9.118;2023-11-21T08:50:30;96475.19;;;7.07;100.00
79242;BME280;68670;48.720;9.118;2023-11-21T08:52:55;96479.81;;;7.18;100.00
79242;BME280;68670;48.720;9.118;2023-11-21T08:55:21;96477.16;;;7.30;100.00
79242;BME280;68670;48.720;9.118;2023-11-21T08:57:49;96485.09;;;7.31;100.00
79242;BME280;68670;48.720;9.118;2023-11-21T09:00:14;96485.69;;;7.33;100.00
79242;BME280;68670;48.720;9.118;2023-11-21T09:02:42;96488.88;;;7.30;100.00
79242;BME280;68670;48.720;9.118;2023-11-21T09:05:12;96493.13;;;7.26;100.00
79242;BME280;68670;48.720;9.118;2023-11-21T09:07:41;96492.53;;;7.24;100.00
79242;BME280;68670;48.720;9.118;2023-11-21T09:10:08;96480.84;;;7.35;100.00
79242;BME280;68670;48.720;9.118;2023-11-21T09:12:35;96491.88;;;7.40;100.00
79242;BME280;68670;48.720;9.118;2023-11-21T09:15:06;96491.41;;;7.44;100.00
79242;BME280;68670;48.720;9.118;2023-11-21T09:17:33;96497.31;;;7.40;100.00
79242;BME280;68670;48.720;9.118;2023-11-21T09:20:02;96505.13;;;7.49;100.00
79242;BME280;68670;48.720;9.118;2023-11-21T09:22:30;96504.66;;;7.52;100.00
79242;BME280;68670;48.720;9.118;2023-11-21T09:24:59;96499.44;;;7.50;100.00
79242;BME280;68670;48.720;9.118;2023-11-21T09:27:24;96507.84;;;7.49;100.00
79242;BME280;68670;48.720;9.118;2023-11-21T09:29:52;96506.34;;;7.53;100.00
79242;BME280;68670;48.720;9.118;2023-11-21T09:32:20;96509.66;;;7.55;100.00
79242;BME280;68670;48.720;9.118;2023-11-21T09:34:46;96510.03;;;7.58;98.92
79242;BME280;68670;48.720;9.118;2023-11-21T09:37:14;96508.72;;;7.61;99.46
79242;BME280;68670;48.720;9.118;2023-11-21T09:39:39;96514.31;;;7.66;99.44
79242;BME280;68670;48.720;9.118;2023-11-21T09:42:12;96513.16;;;7.73;99.42
79242;BME280;68670;48.720;9.118;2023-11-21T09:47:15;96517.91;;;7.78;99.70
79242;BME280;68670;48.720;9.118;2023-11-21T09:49:47;96516.84;;;7.79;99.48
79242;BME280;68670;48.720;9.118;2023-11-21T09:52:21;96516.00;;;7.90;100.00
79242;BME280;68670;48.720;9.118;2023-11-21T09:54:51;96520.41;;;7.80;99.65
79242;BME280;68670;48.720;9.118;2023-11-21T09:57:22;96523.91;;;7.80;100.00
79242;BME280;68670;48.720;9.118;2023-11-21T09:59:51;96525.72;;;7.74;100.00
79242;BME280;68670;48.720;9.118;2023-11-21T10:02:22;96523.69;;;7.70;99.49
79242;BME280;68670;48.720;9.118;2023-11-21T10:04:53;96532.47;;;7.72;99.38
79242;BME280;68670;48.720;9.118;2023-11-21T10:07:20;96530.06;;;7.64;100.00
79242;BME280;68670;48.720;9.118;2023-11-21T10:09:46;96531.81;;;7.58;100.00
79242;BME280;68670;48.720;9.118;2023-11-21T10:12:18;96528.28;;;7.58;100.00
79242;BME280;68670;48.720;9.118;2023-11-21T10:14:48;96532.03;;;7.45;100.00
79242;BME280;68670;48.720;9.118;2023-11-21T10:17:16;96536.66;;;7.45;100.00
79242;BME280;68670;48.720;9.118;2023-11-21T10:19:48;96534.25;;;7.36;100.00
79242;BME280;68670;48.720;9.118;2023-11-21T10:22:15;96533.44;;;7.36;100.00
79242;BME280;68670;48.720;9.118;2023-11-21T10:24:44;96529.97;;;7.29;100.00
79242;BME280;68670;48.720;9.118;2023-11-21T10:27:10;96540.16;;;7.33;100.00
79242;BME280;68670;48.720;9.118;2023-11-21T10:29:39;96534.34;;;7.30;100.00
79242;BME280;68670;48.720;9.118;2023-11-21T10:32:04;96537.31;;;7.28;100.00
79242;BME280;68670;48.720;9.118;2023-11-21T10:34:30;96529.34;;;7.27;100.00
79242;BME280;68670;48.720;9.118;2023-11-21T10:36:56;96543.59;;;7.29;100.00
79242;BME280;68670;48.720;9.118;2023-11-21T10:39:23;96543.97;;;7.32;100.00
79242;BME280;68670;48.720;9.118;2023-11-21T10:41:52;96542.75;;;7.28;100.00
79242;BME280;68670;48.720;9.118;2023-11-21T10:44:18;96539.28;;;7.21;100.00
79242;BME280;68670;48.720;9.118;2023-11-21T10:46:49;96546.16;;;7.24;100.00
79242;BME280;68670;48.720;9.118;2023-11-21T10:49:21;96552.72;;;7.34;100.00
79242;BME280;68670;48.720;9.118;2023-11-21T10:51:46;96547.38;;;7.28;100.00
79242;BME280;68670;48.720;9.118;2023-11-21T10:54:17;96545.56;;;7.22;100.00
79242;BME280;68670;48.720;9.118;2023-11-21T10:56:43;96551.25;;;7.20;100.00
79242;BME280;68670;48.720;9.118;2023-11-21T10:59:12;96549.50;;;7.26;100.00
79242;BME280;68670;48.720;9.118;2023-11-21T11:01:45;96548.66;;;7.25;100.00
79242;BME280;68670;48.720;9.118;2023-11-21T11:04:15;96541.56;;;7.24;100.00
79242;BME280;68670;48.720;9.118;2023-11-21T11:06:43;96553.03;;;7.26;100.00
79242;BME280;68670;48.720;9.118;2023-11-21T11:09:13;96550.09;;;7.28;100.00
79242;BME280;68670;48.720;9.118;2023-11-21T11:11:42;96547.13;;;7.29;100.00
79242;BME280;68670;48.720;9.118;2023-11-21T11:14:11;96542.75;;;7.28;100.00
79242;BME280;68670;48.720;9.118;2023-11-21T11:16:38;96546.31;;;7.29;100.00
79242;BME280;68670;48.720;9.118;2023-11-21T11:19:06;96548.44;;;7.27;100.00
79242;BME280;68670;48.720;9.118;2023-11-21T11:22:00;96544.41;;;7.29;100.00
79242;BME280;68670;48.720;9.118;2023-11-21T11:30:00;96550.78;;;7.23;100.00
79242;BME280;68670;48.720;9.118;2023-11-21T11:38:14;96554.75;;;7.39;100.00
79242;BME280;68670;48.720;9.118;2023-11-21T11:40:40;96551.91;;;7.34;100.00
79242;BME280;68670;48.720;9.118;2023-11-21T11:43:11;96549.69;;;7.43;100.00
79242;BME280;68670;48.720;9.118;2023-11-21T11:45:40;96556.19;;;7.41;100.00
79242;BME280;68670;48.720;9.118;2023-11-21T11:48:08;96557.41;;;7.46;100.00
79242;BME280;68670;48.720;9.118;2023-11-21T11:50:42;96558.16;;;7.64;100.00
79242;BME280;68670;48.720;9.118;2023-11-21T11:53:14;96557.84;;;7.84;100.00
79242;BME280;68670;48.720;9.118;2023-11-21T11:55:40;96560.16;;;8.11;100.00
79242;BME280;68670;48.720;9.118;2023-11-21T11:58:08;96548.88;;;8.19;100.00
79242;BME280;68670;48.720;9.118;2023-11-21T12:00:35;96551.38;;;8.20;100.00
79242;BME280;68670;48.720;9.118;2023-11-21T12:03:03;96552.44;;;8.31;100.00
79242;BME280;68670;48.720;9.118;2023-11-21T12:05:31;96547.94;;;8.48;100.00
79242;BME280;68670;48.720;9.118;2023-11-21T12:08:11;96544.50;;;8.53;99.65
79242;BME280;68670;48.720;9.118;2023-11-21T12:10:38;96547.94;;;8.71;99.37
79242;BME280;68670;48.720;9.118;2023-11-21T12:13:09;96555.84;;;8.85;99.88
79242;BME280;68670;48.720;9.118;2023-11-21T12:15:35;96553.25;;;8.90;99.45
79242;BME280;68670;48.720;9.118;2023-11-21T12:18:02;96551.56;;;8.89;100.00
79242;BME280;68670;48.720;9.118;2023-11-21T12:20:28;96552.38;;;9.01;98.82
79242;BME280;68670;48.720;9.118;2023-11-21T12:22:57;96551.22;;;8.97;97.98
79242;BME280;68670;48.720;9.118;2023-11-21T12:25:29;96558.69;;;9.01;97.88
79242;BME280;68670;48.720;9.118;2023-11-21T12:27:57;96560.22;;;9.09;98.61
79242;BME280;68670;48.720;9.118;2023-11-21T12:30:27;96560.41;;;9.19;98.33
79242;BME280;68670;48.720;9.118;2023-11-21T12:32:58;96561.34;;;9.13;97.58
79242;BME280;68670;48.720;9.118;2023-11-21T12:35:30;96555.34;;;8.99;99.90
79242;BME280;68670;48.720;9.118;2023-11-21T12:37:56;96565.94;;;8.96;98.86
79242;BME280;68670;48.720;9.118;2023-11-21T12:40:25;96565.00;;;8.79;98.26
79242;BME280;68670;48.720;9.118;2023-11-21T12:42:55;96566.34;;;8.64;99.12
79242;BME280;68670;48.720;9.118;2023-11-21T12:45:21;96570.84;;;8.59;100.00
79242;BME280;68670;48.720;9.118;2023-11-21T12:47:52;96570.38;;;8.50;100.00
79242;BME280;68670;48.720;9.118;2023-11-21T12:50:24;96577.63;;;8.33;100.00
79242;BME280;68670;48.720;9.118;2023-11-21T12:52:54;96580.44;;;8.26;100.00
79242;BME280;68670;48.720;9.118;2023-11-21T12:55:25;96575.19;;;8.13;100.00
79242;BME280;68670;48.720;9.118;2023-11-21T12:57:56;96574.59;;;7.99;100.00
79242;BME280;68670;48.720;9.118;2023-11-21T13:00:31;96579.91;;;7.94;100.00
79242;BME280;68670;48.720;9.118;2023-11-21T13:03:03;96581.22;;;7.92;100.00
79242;BME280;68670;48.720;9.118;2023-11-21T13:05:29;96583.44;;;7.83;100.00
79242;BME280;68670;48.720;9.118;2023-11-21T13:07:57;96591.75;;;7.88;100.00
79242;BME280;68670;48.720;9.118;2023-11-21T13:10:24;96585.84;;;7.91;100.00
79242;BME280;68670;48.720;9.118;2023-11-21T13:12:57;96588.88;;;7.83;100.00
79242;BME280;68670;48.720;9.118;2023-11-21T13:15:24;96587.13;;;7.77;100.00